createdAt,value
2022-10-15T00:04:35.489Z,86.15
2022-10-15T00:09:41.833Z,85.10
2022-10-15T00:14:54.422Z,83.38
2022-10-15T00:19:58.496Z,67.97
2022-10-15T00:25:00.226Z,63.80
2022-10-15T00:30:07.250Z,73.35
2022-10-15T00:35:09.134Z,61.35
2022-10-15T00:40:12.229Z,69.78
2022-10-15T00:45:15.847Z,69.40
2022-10-15T00:50:22.996Z,76.47
2022-10-15T00:55:27.639Z,84.28
2022-10-15T01:00:31.636Z,66.80
2022-10-15T01:05:41.621Z,75.05
2022-10-15T01:10:57.185Z,68.40
2022-10-15T01:21:34.775Z,67.05
2022-10-15T01:26:53.903Z,99.40
2022-10-15T01:32:04.583Z,84.25
2022-10-15T01:37:27.352Z,109.68
2022-10-15T01:42:38.471Z,103.82
2022-10-15T01:47:48.440Z,137.43
2022-10-15T01:52:55.910Z,121.75
2022-10-15T01:58:05.740Z,131.57
2022-10-15T02:03:10.068Z,132.80
2022-10-15T02:08:34.651Z,129.95
2022-10-15T02:13:59.753Z,159.68
2022-10-15T02:19:29.648Z,175.45
2022-10-15T02:24:41.180Z,166.05
2022-10-15T02:29:49.462Z,220.35
2022-10-15T02:34:52.417Z,172.85
2022-10-15T02:39:56.784Z,202.48
2022-10-15T02:45:02.160Z,197.18
2022-10-15T02:50:07.888Z,206.75
2022-10-15T02:55:14.258Z,183.85
2022-10-15T03:00:18.993Z,219.13
2022-10-15T03:05:23.883Z,190.93
2022-10-15T03:10:28.496Z,204.40
2022-10-15T03:15:33.675Z,199.45
2022-10-15T03:20:41.913Z,204.70
2022-10-15T03:25:43.728Z,223.02
2022-10-15T03:30:49.655Z,208.03
2022-10-15T03:35:55.258Z,196.57
2022-10-15T03:40:58.157Z,171.98
2022-10-15T03:46:12.311Z,204.40
2022-10-15T03:51:22.029Z,198.32
2022-10-15T03:56:30.943Z,204.95
2022-10-15T04:01:51.750Z,184.38
2022-10-15T04:06:54.427Z,178.27
2022-10-15T04:12:01.249Z,236.52
2022-10-15T04:17:06.541Z,182.93
2022-10-15T04:22:09.155Z,195.60
2022-10-15T04:27:19.754Z,192.32
2022-10-15T04:32:23.944Z,194.18
2022-10-15T04:37:31.891Z,198.00
2022-10-15T04:42:34.380Z,210.52
2022-10-15T04:47:37.334Z,189.65
2022-10-15T04:52:48.865Z,201.15
2022-10-15T04:57:52.230Z,222.65
2022-10-15T05:03:03.832Z,208.18
2022-10-15T05:08:18.784Z,202.73
2022-10-15T05:13:40.664Z,201.25
2022-10-15T05:18:47.448Z,214.38
2022-10-15T05:23:51.508Z,215.68
2022-10-15T05:29:15.809Z,197.60
2022-10-15T05:34:19.471Z,199.07
2022-10-15T05:39:37.448Z,202.02
2022-10-15T05:44:39.206Z,202.00
2022-10-15T05:49:40.935Z,179.85
2022-10-15T05:54:56.425Z,187.00
2022-10-15T05:59:58.166Z,191.85
2022-10-15T06:05:02.409Z,187.52
2022-10-15T06:10:07.098Z,188.30
2022-10-15T06:15:11.697Z,172.48
2022-10-15T06:20:21.015Z,171.85
2022-10-15T06:25:26.014Z,171.40
2022-10-15T06:30:27.980Z,171.43
2022-10-15T06:35:35.248Z,163.65
2022-10-15T06:40:38.697Z,172.60
2022-10-15T06:45:43.088Z,191.77
2022-10-15T06:50:51.577Z,169.23
2022-10-15T06:55:59.671Z,161.75
2022-10-15T07:01:10.121Z,160.30
2022-10-15T07:06:15.445Z,156.52
2022-10-15T07:11:19.758Z,151.75
2022-10-15T07:16:26.483Z,154.32
2022-10-15T07:21:33.011Z,153.70
2022-10-15T07:26:41.617Z,148.23
2022-10-15T07:31:46.654Z,144.63
2022-10-15T07:36:52.291Z,151.43
2022-10-15T07:41:54.162Z,143.18
2022-10-15T07:46:55.971Z,144.05
2022-10-15T07:52:00.073Z,144.02
2022-10-15T07:57:07.373Z,139.88
2022-10-15T08:02:16.886Z,133.23
2022-10-15T08:07:20.867Z,134.57
2022-10-15T08:12:22.826Z,122.70
2022-10-15T08:17:26.885Z,122.47
2022-10-15T08:22:28.643Z,122.07
2022-10-15T08:27:32.077Z,117.53
2022-10-15T08:32:38.355Z,119.07
2022-10-15T08:37:42.327Z,111.32
2022-10-15T08:42:46.342Z,99.60
2022-10-15T08:47:53.466Z,107.47
2022-10-15T08:52:58.594Z,91.53
2022-10-15T08:58:13.952Z,94.65
2022-10-15T09:03:34.068Z,98.95
2022-10-15T09:09:08.870Z,85.53
2022-10-15T09:14:17.155Z,83.82
2022-10-15T09:19:24.786Z,82.05
2022-10-15T09:24:35.341Z,71.82
2022-10-15T09:29:48.161Z,72.00
2022-10-15T09:34:55.071Z,75.43
2022-10-15T09:40:10.731Z,71.50
2022-10-15T09:45:14.889Z,75.35
2022-10-15T09:55:41.344Z,65.95
2022-10-15T10:01:03.255Z,64.43
2022-10-15T10:06:12.962Z,78.43
2022-10-15T10:11:21.404Z,62.45
2022-10-15T10:16:23.995Z,58.42
2022-10-15T10:21:39.202Z,56.65
2022-10-15T10:26:43.498Z,58.10
2022-10-15T10:31:50.355Z,55.38
2022-10-15T10:37:03.732Z,51.63
2022-10-15T10:42:21.566Z,48.10
2022-10-15T10:47:25.781Z,47.85
2022-10-15T10:52:34.219Z,44.92
2022-10-15T10:57:48.471Z,42.10
2022-10-15T11:02:54.044Z,40.85
2022-10-15T11:08:18.914Z,36.22
2022-10-15T11:13:33.085Z,33.65
2022-10-15T11:19:19.833Z,32.58
2022-10-15T11:24:48.874Z,27.38
2022-10-15T11:30:06.516Z,31.15
2022-10-15T11:35:20.152Z,24.75
2022-10-15T11:40:53.543Z,25.88
2022-10-15T11:46:34.351Z,26.35
2022-10-15T11:52:08.163Z,25.23
2022-10-15T11:57:13.983Z,22.80
2022-10-15T12:02:37.856Z,20.83
2022-10-15T12:07:43.996Z,19.83
2022-10-15T12:12:53.618Z,20.52
2022-10-15T12:18:28.154Z,19.50
2022-10-15T12:23:37.714Z,21.10
2022-10-15T12:28:48.341Z,23.23
2022-10-15T12:33:55.555Z,19.80
2022-10-15T12:39:33.589Z,19.17
2022-10-15T12:44:53.098Z,18.20
2022-10-15T12:50:04.991Z,24.08
2022-10-15T12:55:39.475Z,21.20
2022-10-15T13:00:46.100Z,21.30
2022-10-15T13:05:53.115Z,22.05
2022-10-15T13:11:27.690Z,25.75
2022-10-15T13:16:34.679Z,24.08
2022-10-15T13:21:49.905Z,24.98
2022-10-15T13:26:52.392Z,26.70
2022-10-15T13:31:59.270Z,26.25
2022-10-15T13:37:04.623Z,26.27
2022-10-15T13:42:19.490Z,26.15
2022-10-15T13:47:29.916Z,31.15
2022-10-15T13:52:31.874Z,27.48
2022-10-15T13:57:36.168Z,30.27
2022-10-15T14:02:37.955Z,31.52
2022-10-15T14:07:54.736Z,33.67
2022-10-15T14:12:56.517Z,31.67
2022-10-15T14:18:00.576Z,32.15
2022-10-15T14:23:02.313Z,31.70
2022-10-15T14:28:05.564Z,35.50
2022-10-15T14:33:42.209Z,39.50
2022-10-15T14:38:49.710Z,44.30
2022-10-15T14:44:15.112Z,46.45
2022-10-15T14:49:31.807Z,48.92
2022-10-15T14:54:56.865Z,51.97
2022-10-15T15:00:05.327Z,56.25
2022-10-15T15:05:11.226Z,56.97
2022-10-15T15:10:18.892Z,57.40
2022-10-15T15:15:24.940Z,55.97
2022-10-15T15:20:26.870Z,65.22
2022-10-15T15:25:41.840Z,59.95
2022-10-15T15:30:45.130Z,65.18
2022-10-15T15:35:51.521Z,60.47
2022-10-15T15:40:53.188Z,58.90
2022-10-15T15:45:54.999Z,59.17
2022-10-15T15:51:06.035Z,59.00
2022-10-15T15:56:07.788Z,62.03
2022-10-15T16:01:12.197Z,61.47
2022-10-15T16:06:14.068Z,56.05
2022-10-15T16:11:15.852Z,56.00
2022-10-15T16:16:17.622Z,52.85
2022-10-15T16:21:26.412Z,58.88
2022-10-15T16:26:28.962Z,46.35
2022-10-15T16:31:36.922Z,50.67
2022-10-15T16:36:40.956Z,51.90
2022-10-15T16:41:42.679Z,51.85
2022-10-15T16:46:46.699Z,40.38
2022-10-15T16:51:56.032Z,36.38
2022-10-15T16:57:03.389Z,40.03
2022-10-15T17:02:06.203Z,36.85
2022-10-15T17:07:10.063Z,35.55
2022-10-15T17:12:17.255Z,35.65
2022-10-15T17:17:25.212Z,35.63
2022-10-15T17:22:30.784Z,35.13
2022-10-15T17:27:35.716Z,34.15
2022-10-15T17:32:37.598Z,38.63
2022-10-15T17:37:41.464Z,36.42
2022-10-15T17:42:47.815Z,37.17
2022-10-15T17:47:52.535Z,36.13
2022-10-15T17:52:54.988Z,33.50
2022-10-15T17:57:59.762Z,29.65
2022-10-15T18:03:06.907Z,27.20
2022-10-15T18:08:12.279Z,29.25
2022-10-15T18:13:14.048Z,22.23
2022-10-15T18:18:22.054Z,24.38
2022-10-15T18:23:25.986Z,19.70
2022-10-15T18:28:30.330Z,19.40
2022-10-15T18:33:32.376Z,20.90
2022-10-15T18:38:37.877Z,18.38
2022-10-15T18:43:41.680Z,15.75
2022-10-15T18:48:44.084Z,20.48
2022-10-15T18:53:46.136Z,14.68
2022-10-15T18:58:52.410Z,17.02
2022-10-15T19:03:58.223Z,19.58
2022-10-15T19:09:02.089Z,17.50
2022-10-15T19:14:08.926Z,20.83
2022-10-15T19:19:14.936Z,28.10
2022-10-15T19:24:21.213Z,18.02
2022-10-15T19:29:23.094Z,26.40
2022-10-15T19:34:29.126Z,30.58
2022-10-15T19:39:32.776Z,23.83
2022-10-15T19:44:35.114Z,28.77
2022-10-15T19:49:39.491Z,20.45
2022-10-15T19:54:45.904Z,35.40
2022-10-15T19:59:53.461Z,21.38
2022-10-15T20:05:00.042Z,24.33
2022-10-15T20:10:04.217Z,23.30
2022-10-15T20:15:09.421Z,22.33
2022-10-15T20:20:16.049Z,16.73
2022-10-15T20:25:17.788Z,13.25
2022-10-15T20:30:19.493Z,18.02
2022-10-15T20:35:23.820Z,14.02
2022-10-15T20:40:25.684Z,11.35
2022-10-15T20:45:34.576Z,11.82
2022-10-15T20:50:38.699Z,33.42
2022-10-15T20:55:44.988Z,10.75
2022-10-15T21:00:51.572Z,9.68
2022-10-15T21:05:57.828Z,13.73
2022-10-15T21:11:06.500Z,9.90
2022-10-15T21:16:11.229Z,12.20
2022-10-15T21:21:17.739Z,12.00
2022-10-15T21:26:23.837Z,15.80
2022-10-15T21:31:28.183Z,12.15
2022-10-15T21:36:35.387Z,10.48
2022-10-15T21:41:38.995Z,12.98
2022-10-15T21:46:43.380Z,9.77
2022-10-15T21:51:45.066Z,14.98
2022-10-15T21:56:47.540Z,13.13
2022-10-15T22:01:54.723Z,9.20
2022-10-15T22:06:59.868Z,11.45
2022-10-15T22:12:01.643Z,9.60
2022-10-15T22:17:05.976Z,8.23
2022-10-15T22:22:09.627Z,8.45
2022-10-15T22:27:13.564Z,10.00
2022-10-15T22:32:17.746Z,13.07
2022-10-15T22:37:21.691Z,11.07
2022-10-15T22:42:25.760Z,11.68
2022-10-15T22:47:34.505Z,10.02
2022-10-15T22:52:38.305Z,10.13
2022-10-15T22:57:42.566Z,12.73
2022-10-15T23:02:49.012Z,17.00
2022-10-15T23:07:53.038Z,12.60
2022-10-15T23:12:57.802Z,10.68
2022-10-15T23:18:04.562Z,11.50
2022-10-15T23:23:08.829Z,8.32
2022-10-15T23:28:15.369Z,8.77
2022-10-15T23:33:19.226Z,13.90
2022-10-15T23:38:23.236Z,8.50
2022-10-15T23:43:24.953Z,8.57
2022-10-15T23:48:27.395Z,10.55
2022-10-15T23:53:34.125Z,13.27
2022-10-15T23:58:38.456Z,9.75
